createdAt,value
2018-10-01T00:00:43.368Z,11.77
2018-10-01T00:03:12.845Z,12.77
2018-10-01T00:05:42.006Z,12.00
2018-10-01T00:08:11.113Z,11.67
2018-10-01T00:10:40.238Z,11.37
2018-10-01T00:13:08.972Z,12.20
2018-10-01T00:15:37.734Z,11.97
2018-10-01T00:18:07.157Z,11.70
2018-10-01T00:20:41.367Z,11.50
2018-10-01T00:23:10.730Z,11.60
2018-10-01T00:25:39.519Z,11.50
2018-10-01T00:28:08.306Z,10.97
2018-10-01T00:30:37.515Z,13.13
2018-10-01T00:33:06.380Z,12.43
2018-10-01T00:35:35.163Z,11.90
2018-10-01T00:38:03.949Z,11.80
2018-10-01T00:40:32.976Z,11.57
2018-10-01T00:43:01.745Z,11.20
2018-10-01T00:45:30.448Z,11.73
2018-10-01T00:47:59.189Z,11.90
2018-10-01T00:50:28.279Z,11.80
2018-10-01T00:52:57.299Z,12.40
2018-10-01T00:55:26.232Z,10.43
2018-10-01T00:57:55.600Z,11.17
2018-10-01T01:00:25.052Z,11.20
2018-10-01T01:02:55.217Z,11.63
2018-10-01T01:05:24.085Z,11.37
2018-10-01T01:07:52.942Z,11.60
2018-10-01T01:10:21.694Z,11.73
2018-10-01T01:12:50.414Z,12.23
2018-10-01T01:15:19.508Z,12.27
2018-10-01T01:17:48.317Z,11.90
2018-10-01T01:20:17.116Z,11.67
2018-10-01T01:22:45.898Z,12.13
2018-10-01T01:25:14.956Z,11.53
2018-10-01T01:27:43.967Z,12.10
2018-10-01T01:30:12.756Z,11.27
2018-10-01T01:32:42.275Z,11.93
2018-10-01T01:35:11.368Z,11.97
2018-10-01T01:37:40.468Z,12.07
2018-10-01T01:40:09.276Z,11.90
2018-10-01T01:42:38.329Z,12.10
2018-10-01T01:45:07.490Z,11.80
2018-10-01T01:47:36.326Z,11.20
2018-10-01T01:50:05.462Z,12.53
2018-10-01T01:52:34.212Z,11.60
2018-10-01T01:55:03.323Z,11.40
2018-10-01T01:57:32.072Z,11.50
2018-10-01T02:00:00.869Z,11.93
2018-10-01T02:02:29.650Z,11.53
2018-10-01T02:04:58.457Z,11.70
2018-10-01T02:07:27.571Z,12.13
2018-10-01T02:09:56.684Z,12.17
2018-10-01T02:12:25.435Z,11.17
2018-10-01T02:14:54.356Z,11.60
2018-10-01T02:17:23.510Z,12.10
2018-10-01T02:19:52.626Z,11.50
2018-10-01T02:22:21.782Z,11.40
2018-10-01T02:24:51.101Z,11.70
2018-10-01T02:27:19.847Z,11.77
2018-10-01T02:29:48.736Z,11.97
2018-10-01T02:32:17.448Z,12.20
2018-10-01T02:34:46.158Z,11.30
2018-10-01T02:37:15.210Z,11.40
2018-10-01T02:39:44.613Z,13.30
2018-10-01T02:42:13.426Z,11.90
2018-10-01T02:44:42.211Z,11.03
2018-10-01T02:47:10.956Z,11.20
2018-10-01T02:49:39.787Z,11.53
2018-10-01T02:52:13.640Z,11.07
2018-10-01T02:54:43.690Z,11.70
2018-10-01T02:57:12.526Z,10.83
2018-10-01T02:59:41.712Z,10.97
2018-10-01T03:02:10.512Z,11.07
2018-10-01T03:04:39.281Z,12.07
2018-10-01T03:07:08.047Z,11.30
2018-10-01T03:09:36.797Z,12.00
2018-10-01T03:12:05.579Z,11.43
2018-10-01T03:14:34.589Z,11.40
2018-10-01T03:17:03.423Z,11.30
2018-10-01T03:19:32.326Z,13.33
2018-10-01T03:22:01.130Z,11.87
2018-10-01T03:24:30.870Z,11.73
2018-10-01T03:26:59.993Z,12.00
2018-10-01T03:29:28.812Z,11.00
2018-10-01T03:31:58.050Z,11.53
2018-10-01T03:34:27.201Z,11.60
2018-10-01T03:36:57.424Z,11.83
2018-10-01T03:39:26.261Z,10.87
2018-10-01T03:41:55.287Z,12.77
2018-10-01T03:44:23.995Z,11.40
2018-10-01T03:46:52.810Z,12.27
2018-10-01T03:49:21.727Z,11.30
2018-10-01T03:51:50.950Z,12.17
2018-10-01T03:54:20.046Z,11.93
2018-10-01T03:56:48.881Z,11.93
2018-10-01T03:59:17.725Z,11.03
2018-10-01T04:01:46.546Z,11.87
2018-10-01T04:04:15.342Z,12.00
2018-10-01T04:06:44.091Z,11.30
2018-10-01T04:09:13.106Z,11.73
2018-10-01T04:11:41.829Z,12.00
2018-10-01T04:14:10.684Z,12.63
2018-10-01T04:16:39.548Z,11.77
2018-10-01T04:19:08.362Z,11.90
2018-10-01T04:21:37.136Z,11.27
2018-10-01T04:24:05.985Z,11.53
2018-10-01T04:26:34.921Z,11.60
2018-10-01T04:29:03.718Z,11.10
2018-10-01T04:31:33.045Z,12.30
2018-10-01T04:34:01.736Z,11.50
2018-10-01T04:36:30.581Z,11.47
2018-10-01T04:38:59.397Z,12.13
2018-10-01T04:41:28.208Z,11.30
2018-10-01T04:43:56.966Z,11.40
2018-10-01T04:46:25.739Z,12.30
2018-10-01T04:48:55.131Z,11.87
2018-10-01T04:51:24.201Z,11.47
2018-10-01T04:53:52.955Z,11.63
2018-10-01T04:56:21.742Z,12.37
2018-10-01T04:58:51.188Z,11.63
2018-10-01T05:01:20.039Z,11.60
2018-10-01T05:03:48.814Z,11.30
2018-10-01T05:06:18.203Z,12.03
2018-10-01T05:08:47.443Z,11.87
2018-10-01T05:11:16.170Z,11.97
2018-10-01T05:13:45.412Z,12.30
2018-10-01T05:16:14.707Z,12.07
2018-10-01T05:18:43.449Z,12.20
2018-10-01T05:21:12.714Z,11.50
2018-10-01T05:23:41.646Z,11.40
2018-10-01T05:26:10.991Z,11.80
2018-10-01T05:28:40.142Z,11.50
2018-10-01T05:31:09.326Z,10.87
2018-10-01T05:33:38.485Z,11.00
2018-10-01T05:36:07.291Z,11.47
2018-10-01T05:38:36.110Z,10.90
2018-10-01T05:41:04.984Z,11.60
2018-10-01T05:43:33.991Z,11.13
2018-10-01T05:46:03.129Z,11.87
2018-10-01T05:48:33.117Z,11.60
2018-10-01T05:51:01.973Z,11.30
2018-10-01T05:53:31.016Z,10.90
2018-10-01T05:55:59.829Z,11.57
2018-10-01T05:58:28.719Z,11.20
2018-10-01T06:00:57.671Z,11.00
2018-10-01T06:03:26.806Z,11.23
2018-10-01T06:05:55.641Z,12.20
2018-10-01T06:08:26.154Z,12.97
2018-10-01T06:10:55.155Z,11.33
2018-10-01T06:13:24.032Z,11.03
2018-10-01T06:15:53.364Z,11.37
2018-10-01T06:18:22.148Z,11.77
2018-10-01T06:20:51.257Z,11.17
2018-10-01T06:23:20.337Z,10.70
2018-10-01T06:25:49.162Z,12.33
2018-10-01T06:28:18.229Z,10.90
2018-10-01T06:30:47.307Z,10.70
2018-10-01T06:33:16.307Z,10.70
2018-10-01T06:35:45.190Z,11.10
2018-10-01T06:38:13.929Z,12.40
2018-10-01T06:40:42.832Z,11.20
2018-10-01T06:43:11.584Z,11.10
2018-10-01T06:45:40.675Z,11.10
2018-10-01T06:48:09.467Z,11.43
2018-10-01T06:50:39.641Z,11.07
2018-10-01T06:53:08.984Z,11.60
2018-10-01T06:55:37.808Z,10.50
2018-10-01T06:58:07.074Z,12.17
2018-10-01T07:00:35.839Z,11.17
2018-10-01T07:03:04.992Z,11.17
2018-10-01T07:05:34.528Z,11.80
2018-10-01T07:08:04.116Z,12.27
2018-10-01T07:10:33.250Z,11.57
2018-10-01T07:13:02.378Z,10.80
2018-10-01T07:15:31.429Z,11.50
2018-10-01T07:18:00.623Z,12.30
2018-10-01T07:20:29.573Z,11.37
2018-10-01T07:22:58.470Z,12.00
2018-10-01T07:25:27.227Z,11.37
2018-10-01T07:27:56.080Z,11.90
2018-10-01T07:30:24.963Z,11.87
2018-10-01T07:32:53.870Z,12.00
2018-10-01T07:35:22.745Z,11.73
2018-10-01T07:37:51.677Z,11.50
2018-10-01T07:40:20.672Z,12.03
2018-10-01T07:42:49.542Z,11.77
2018-10-01T07:45:18.849Z,11.87
2018-10-01T07:47:47.645Z,12.37
2018-10-01T07:50:16.581Z,12.90
2018-10-01T07:52:45.537Z,12.30
2018-10-01T07:55:14.288Z,11.97
2018-10-01T07:57:43.392Z,12.20
2018-10-01T08:00:12.342Z,12.50
2018-10-01T08:02:41.357Z,12.53
2018-10-01T08:05:10.099Z,12.30
2018-10-01T08:07:39.459Z,12.77
2018-10-01T08:10:08.736Z,13.23
2018-10-01T08:12:38.155Z,13.87
2018-10-01T08:15:07.042Z,14.13
2018-10-01T08:17:36.923Z,13.60
2018-10-01T08:20:06.054Z,13.00
2018-10-01T08:22:34.883Z,13.30
2018-10-01T08:25:03.710Z,13.80
2018-10-01T08:27:32.589Z,13.73
2018-10-01T08:30:02.134Z,13.77
2018-10-01T08:32:31.263Z,14.20
2018-10-01T08:35:00.756Z,14.77
2018-10-01T08:37:29.675Z,13.47
2018-10-01T08:39:58.520Z,14.90
2018-10-01T08:42:27.646Z,14.03
2018-10-01T08:44:56.467Z,14.67
2018-10-01T08:47:25.749Z,14.77
2018-10-01T08:51:02.382Z,14.07
2018-10-01T08:54:33.968Z,14.77
2018-10-01T08:57:03.046Z,14.63
2018-10-01T08:59:32.514Z,14.07
2018-10-01T09:02:02.990Z,15.00
2018-10-01T09:04:32.402Z,14.80
2018-10-01T09:07:01.780Z,15.50
2018-10-01T09:09:30.919Z,15.63
2018-10-01T09:12:00.587Z,15.67
2018-10-01T09:14:30.094Z,15.00
2018-10-01T09:16:59.884Z,16.00
2018-10-01T09:19:28.793Z,15.10
2018-10-01T09:21:57.817Z,16.43
2018-10-01T09:24:26.701Z,15.27
2018-10-01T09:26:55.611Z,16.20
2018-10-01T09:29:24.537Z,16.17
2018-10-01T09:31:54.475Z,15.80
2018-10-01T09:34:23.799Z,15.57
2018-10-01T09:36:52.777Z,15.63
2018-10-01T09:39:21.692Z,14.97
2018-10-01T09:41:50.512Z,15.93
2018-10-01T09:44:19.503Z,16.80
2018-10-01T09:46:48.776Z,15.73
2018-10-01T09:49:17.563Z,15.20
2018-10-01T09:51:46.780Z,16.07
2018-10-01T09:54:15.636Z,15.40
2018-10-01T09:56:44.849Z,14.80
2018-10-01T09:59:13.954Z,15.43
2018-10-01T10:01:43.041Z,15.23
2018-10-01T10:04:12.244Z,15.40
2018-10-01T10:06:41.617Z,15.60
2018-10-01T10:09:11.736Z,15.50
2018-10-01T10:11:41.040Z,15.70
2018-10-01T10:14:10.069Z,14.90
2018-10-01T10:16:39.064Z,14.63
2018-10-01T10:19:08.064Z,14.70
2018-10-01T10:21:37.248Z,15.43
2018-10-01T10:24:06.390Z,14.90
2018-10-01T10:26:35.795Z,14.57
2018-10-01T10:29:04.845Z,16.33
2018-10-01T10:31:33.708Z,16.17
2018-10-01T10:34:03.057Z,16.77
2018-10-01T10:36:32.322Z,16.90
2018-10-01T10:39:01.221Z,16.70
2018-10-01T10:41:30.062Z,17.47
2018-10-01T10:43:58.981Z,17.37
2018-10-01T10:46:27.788Z,16.30
2018-10-01T10:48:56.790Z,16.33
2018-10-01T10:51:26.200Z,16.03
2018-10-01T10:53:55.101Z,16.20
2018-10-01T10:56:24.011Z,17.23
2018-10-01T10:58:52.901Z,14.87
2018-10-01T11:01:21.792Z,13.77
2018-10-01T11:03:50.722Z,13.43
2018-10-01T11:06:19.967Z,12.90
2018-10-01T11:08:49.057Z,13.73
2018-10-01T11:11:18.018Z,12.90
2018-10-01T11:13:47.033Z,13.27
2018-10-01T11:16:15.902Z,13.37
2018-10-01T11:18:45.572Z,13.77
2018-10-01T11:21:17.427Z,13.53
2018-10-01T11:23:46.315Z,14.20
2018-10-01T11:26:15.560Z,14.50
2018-10-01T11:28:44.623Z,15.17
2018-10-01T11:31:13.687Z,15.83
2018-10-01T11:33:43.129Z,15.90
2018-10-01T11:36:12.662Z,14.90
2018-10-01T11:38:47.772Z,16.10
2018-10-01T11:41:17.184Z,20.13
2018-10-01T11:43:46.197Z,17.80
2018-10-01T11:46:14.980Z,15.07
2018-10-01T11:48:43.888Z,14.40
2018-10-01T11:51:12.854Z,13.37
2018-10-01T11:53:41.746Z,14.10
2018-10-01T11:56:10.702Z,12.70
2018-10-01T11:58:39.654Z,13.17
2018-10-01T12:01:08.805Z,13.00
2018-10-01T12:03:37.730Z,11.00
2018-10-01T12:06:06.792Z,11.37
2018-10-01T12:08:36.127Z,10.70
2018-10-01T12:11:07.926Z,10.53
2018-10-01T12:13:36.660Z,10.57
2018-10-01T12:16:05.703Z,10.30
2018-10-01T12:18:34.727Z,17.30
2018-10-01T12:21:03.621Z,9.73
2018-10-01T12:23:33.275Z,10.60
2018-10-01T12:26:02.768Z,10.43
2018-10-01T12:28:31.548Z,9.70
2018-10-01T12:31:00.361Z,10.10
2018-10-01T12:33:29.562Z,9.70
2018-10-01T12:35:58.613Z,10.30
2018-10-01T12:38:27.611Z,10.10
2018-10-01T12:40:58.177Z,10.60
2018-10-01T12:43:27.749Z,10.70
2018-10-01T12:45:56.934Z,9.87
2018-10-01T12:48:26.167Z,10.07
2018-10-01T12:50:55.738Z,9.60
2018-10-01T12:53:24.902Z,9.83
2018-10-01T12:55:53.970Z,9.73
2018-10-01T12:58:22.791Z,10.40
2018-10-01T13:00:51.862Z,9.97
2018-10-01T13:03:20.956Z,9.67
2018-10-01T13:05:50.955Z,9.37
2018-10-01T13:08:19.907Z,9.43
2018-10-01T13:10:49.108Z,9.97
2018-10-01T13:13:17.936Z,9.40
2018-10-01T13:15:46.802Z,9.83
2018-10-01T13:18:16.165Z,9.50
2018-10-01T13:20:45.432Z,9.27
2018-10-01T13:23:14.467Z,9.17
2018-10-01T13:25:43.571Z,9.70
2018-10-01T13:28:12.460Z,9.13
2018-10-01T13:30:41.291Z,9.70
2018-10-01T13:33:10.019Z,8.90
2018-10-01T13:35:39.390Z,9.07
2018-10-01T13:38:08.261Z,9.60
2018-10-01T13:40:37.086Z,9.30
2018-10-01T13:43:12.311Z,8.90
2018-10-01T13:45:41.102Z,9.17
2018-10-01T13:48:10.294Z,9.53
2018-10-01T13:50:39.455Z,9.40
2018-10-01T13:53:08.299Z,9.90
2018-10-01T13:55:37.537Z,9.13
2018-10-01T13:58:06.769Z,9.60
2018-10-01T14:00:35.600Z,9.10
2018-10-01T14:03:04.788Z,9.23
2018-10-01T14:05:33.980Z,9.30
2018-10-01T14:08:02.809Z,9.10
2018-10-01T14:10:31.969Z,9.13
2018-10-01T14:13:00.957Z,9.17
2018-10-01T14:15:30.562Z,9.60
2018-10-01T14:17:59.734Z,12.20
2018-10-01T14:20:28.798Z,9.00
2018-10-01T14:22:58.667Z,8.67
2018-10-01T14:25:28.112Z,9.23
2018-10-01T14:27:57.104Z,8.47
2018-10-01T14:30:27.178Z,8.40
2018-10-01T14:32:56.950Z,9.40
2018-10-01T14:35:25.926Z,8.93
2018-10-01T14:37:55.003Z,9.30
2018-10-01T14:40:29.563Z,9.63
2018-10-01T14:43:02.608Z,9.87
2018-10-01T14:45:31.632Z,9.70
2018-10-01T14:48:00.569Z,10.07
2018-10-01T14:50:29.464Z,9.73
2018-10-01T14:52:58.363Z,8.90
2018-10-01T14:55:27.554Z,9.50
2018-10-01T14:57:56.447Z,8.97
2018-10-01T15:00:25.345Z,9.40
2018-10-01T15:02:54.034Z,9.30
2018-10-01T15:05:22.842Z,8.77
2018-10-01T15:07:52.048Z,8.47
2018-10-01T15:10:21.315Z,9.57
2018-10-01T15:12:51.469Z,9.50
2018-10-01T15:15:20.592Z,9.40
2018-10-01T15:17:49.783Z,9.13
2018-10-01T15:20:19.364Z,8.73
2018-10-01T15:22:48.257Z,9.30
2018-10-01T15:25:23.892Z,8.87
2018-10-01T15:27:52.730Z,9.00
2018-10-01T15:30:21.634Z,9.10
2018-10-01T15:32:50.661Z,9.10
2018-10-01T15:35:19.764Z,9.07
2018-10-01T15:37:48.568Z,8.73
2018-10-01T15:40:17.616Z,9.30
2018-10-01T15:42:46.709Z,8.90
2018-10-01T15:45:15.778Z,9.20
2018-10-01T15:47:44.642Z,9.20
2018-10-01T15:50:13.428Z,8.63
2018-10-01T15:52:42.787Z,9.70
2018-10-01T15:55:11.892Z,9.13
2018-10-01T15:57:42.470Z,9.60
2018-10-01T16:00:11.962Z,9.40
2018-10-01T16:02:41.109Z,9.10
2018-10-01T16:05:09.887Z,9.40
2018-10-01T16:07:38.812Z,8.97
2018-10-01T16:10:07.982Z,9.60
2018-10-01T16:12:37.065Z,9.10
2018-10-01T16:15:06.716Z,9.30
2018-10-01T16:17:35.655Z,9.60
2018-10-01T16:20:06.090Z,9.53
2018-10-01T16:22:34.962Z,9.57
2018-10-01T16:25:03.951Z,9.40
2018-10-01T16:27:32.675Z,9.17
2018-10-01T16:30:01.494Z,9.17
2018-10-01T16:32:30.434Z,9.10
2018-10-01T16:34:59.746Z,9.43
2018-10-01T16:37:28.499Z,9.43
2018-10-01T16:39:57.957Z,9.10
2018-10-01T16:42:27.062Z,9.30
2018-10-01T16:44:55.893Z,8.77
2018-10-01T16:47:24.757Z,9.20
2018-10-01T16:49:53.782Z,9.33
2018-10-01T16:52:23.131Z,9.23
2018-10-01T16:54:52.498Z,9.90
2018-10-01T16:57:21.615Z,9.63
2018-10-01T16:59:50.398Z,10.00
2018-10-01T17:02:19.237Z,9.67
2018-10-01T17:04:48.278Z,9.67
2018-10-01T17:07:17.220Z,10.10
2018-10-01T17:09:46.218Z,10.60
2018-10-01T17:12:15.387Z,9.43
2018-10-01T17:14:44.266Z,9.27
2018-10-01T17:17:13.149Z,9.57
2018-10-01T17:19:42.672Z,9.43
2018-10-01T17:22:12.077Z,9.50
2018-10-01T17:24:40.897Z,9.90
2018-10-01T17:27:09.685Z,10.27
2018-10-01T17:29:38.494Z,10.30
2018-10-01T17:32:07.430Z,10.40
2018-10-01T17:34:36.271Z,10.20
2018-10-01T17:37:05.322Z,9.70
2018-10-01T17:39:34.543Z,9.37
2018-10-01T17:42:03.620Z,9.50
2018-10-01T17:44:32.720Z,9.50
2018-10-01T17:47:01.605Z,9.97
2018-10-01T17:49:30.983Z,9.80
2018-10-01T17:52:00.458Z,9.27
2018-10-01T17:54:29.624Z,8.60
2018-10-01T17:56:58.548Z,8.63
2018-10-01T17:59:27.720Z,9.20
2018-10-01T18:01:56.683Z,8.40
2018-10-01T18:04:26.039Z,8.50
2018-10-01T18:06:54.873Z,8.40
2018-10-01T18:09:24.085Z,8.70
2018-10-01T18:11:52.945Z,8.30
2018-10-01T18:14:21.722Z,8.20
2018-10-01T18:16:50.580Z,8.83
2018-10-01T18:19:19.676Z,8.33
2018-10-01T18:21:48.476Z,8.27
2018-10-01T18:24:17.390Z,8.43
2018-10-01T18:26:46.520Z,8.57
2018-10-01T18:29:15.305Z,7.83
2018-10-01T18:31:44.497Z,8.63
2018-10-01T18:34:13.734Z,8.40
2018-10-01T18:36:42.743Z,8.43
2018-10-01T18:39:17.196Z,8.47
2018-10-01T18:41:47.055Z,8.20
2018-10-01T18:44:16.184Z,8.40
2018-10-01T18:46:46.597Z,8.30
2018-10-01T18:49:16.133Z,7.97
2018-10-01T18:51:45.083Z,8.83
2018-10-01T18:54:14.764Z,8.30
2018-10-01T18:56:43.902Z,8.20
2018-10-01T18:59:13.301Z,8.17
2018-10-01T19:01:42.238Z,8.20
2018-10-01T19:04:11.024Z,8.17
2018-10-01T19:06:39.965Z,8.30
2018-10-01T19:09:10.146Z,9.30
2018-10-01T19:11:39.675Z,8.90
2018-10-01T19:14:09.112Z,8.70
2018-10-01T19:16:38.193Z,8.47
2018-10-01T19:19:07.572Z,8.10
2018-10-01T19:21:36.561Z,8.20
2018-10-01T19:24:05.442Z,8.37
2018-10-01T19:26:34.239Z,7.97
2018-10-01T19:29:03.207Z,8.30
2018-10-01T19:31:32.408Z,8.43
2018-10-01T19:34:01.578Z,8.40
2018-10-01T19:36:30.450Z,8.60
2018-10-01T19:38:59.399Z,8.23
2018-10-01T19:41:28.363Z,8.77
2018-10-01T19:43:57.248Z,8.40
2018-10-01T19:46:27.063Z,8.80
2018-10-01T19:48:55.988Z,8.47
2018-10-01T19:51:25.227Z,8.40
2018-10-01T19:53:54.088Z,8.63
2018-10-01T19:56:23.775Z,8.30
2018-10-01T19:58:52.619Z,8.20
2018-10-01T20:01:21.454Z,8.63
2018-10-01T20:03:50.360Z,9.93
2018-10-01T20:06:19.420Z,8.80
2018-10-01T20:08:48.519Z,9.17
2018-10-01T20:11:18.145Z,8.93
2018-10-01T20:13:47.041Z,8.73
2018-10-01T20:16:15.882Z,8.77
2018-10-01T20:18:45.140Z,8.27
2018-10-01T20:21:14.536Z,8.00
2018-10-01T20:23:43.685Z,8.43
2018-10-01T20:26:13.941Z,8.33
2018-10-01T20:28:43.453Z,8.70
2018-10-01T20:31:12.469Z,8.60
2018-10-01T20:33:42.064Z,8.50
2018-10-01T20:36:12.045Z,8.50
2018-10-01T20:38:42.074Z,8.30
2018-10-01T20:41:10.971Z,9.00
2018-10-01T20:43:39.882Z,8.67
2018-10-01T20:46:08.921Z,8.70
2018-10-01T20:48:38.072Z,8.37
2018-10-01T20:51:08.286Z,8.93
2018-10-01T20:53:37.723Z,8.90
2018-10-01T20:56:07.219Z,8.47
2018-10-01T20:58:36.304Z,8.00
2018-10-01T21:01:05.342Z,8.60
2018-10-01T21:03:34.174Z,8.10
2018-10-01T21:06:03.480Z,8.00
2018-10-01T21:08:32.455Z,8.20
2018-10-01T21:11:01.371Z,8.40
2018-10-01T21:13:30.459Z,8.10
2018-10-01T21:15:59.369Z,8.20
2018-10-01T21:18:28.154Z,8.23
2018-10-01T21:20:57.130Z,8.27
2018-10-01T21:23:26.013Z,8.60
2018-10-01T21:25:54.817Z,9.00
2018-10-01T21:28:23.646Z,8.33
2018-10-01T21:30:52.569Z,8.80
2018-10-01T21:33:21.597Z,8.37
2018-10-01T21:35:51.111Z,8.80
2018-10-01T21:38:20.292Z,9.20
2018-10-01T21:40:55.283Z,9.00
2018-10-01T21:43:24.138Z,8.97
2018-10-01T21:45:52.953Z,8.60
2018-10-01T21:48:21.687Z,10.40
2018-10-01T21:50:50.708Z,9.90
2018-10-01T21:53:19.808Z,9.50
2018-10-01T21:55:49.125Z,8.63
2018-10-01T21:58:18.407Z,9.57
2018-10-01T22:00:52.342Z,8.47
2018-10-01T22:03:22.254Z,8.40
2018-10-01T22:05:51.392Z,8.90
2018-10-01T22:08:20.549Z,8.70
2018-10-01T22:10:49.369Z,8.50
2018-10-01T22:13:18.846Z,8.70
2018-10-01T22:15:49.430Z,9.07
2018-10-01T22:18:20.399Z,9.03
2018-10-01T22:20:52.625Z,8.50
2018-10-01T22:23:22.426Z,8.20
2018-10-01T22:25:51.293Z,8.77
2018-10-01T22:28:20.087Z,9.10
2018-10-01T22:30:49.169Z,9.70
2018-10-01T22:33:18.295Z,10.40
2018-10-01T22:35:47.288Z,9.63
2018-10-01T22:38:16.800Z,9.17
2018-10-01T22:40:45.542Z,8.90
2018-10-01T22:43:14.295Z,8.67
2018-10-01T22:45:43.174Z,9.10
2018-10-01T22:48:11.987Z,10.13
2018-10-01T22:50:40.917Z,9.10
2018-10-01T22:53:09.808Z,9.00
2018-10-01T22:55:38.697Z,8.97
2018-10-01T22:58:08.000Z,8.80
2018-10-01T23:00:37.039Z,11.00
2018-10-01T23:03:05.982Z,8.50
2018-10-01T23:05:34.984Z,8.30
2018-10-01T23:08:04.048Z,8.50
2018-10-01T23:10:33.084Z,9.17
2018-10-01T23:13:02.167Z,8.60
2018-10-01T23:15:31.169Z,8.73
2018-10-01T23:18:00.233Z,8.17
2018-10-01T23:20:29.145Z,8.33
2018-10-01T23:22:58.124Z,8.43
2018-10-01T23:25:27.180Z,8.60
2018-10-01T23:27:56.343Z,8.60
2018-10-01T23:30:25.302Z,8.40
2018-10-01T23:32:54.219Z,8.43
2018-10-01T23:35:23.304Z,8.60
2018-10-01T23:37:52.620Z,8.93
2018-10-01T23:40:21.890Z,8.67
2018-10-01T23:42:51.998Z,7.93
2018-10-01T23:45:21.149Z,9.20
2018-10-01T23:47:50.220Z,8.57
2018-10-01T23:50:25.645Z,8.43
2018-10-01T23:52:54.891Z,8.50
2018-10-01T23:55:23.902Z,7.83
2018-10-01T23:57:52.925Z,8.40
